sensor_id;sensor_type;location;lat;lon;timestamp;temperature;humidity
54260;DHT22;40172;53.022;7.012;2023-09-07T00:00:46;18.30;99.90
54260;DHT22;40172;53.022;7.012;2023-09-07T00:03:13;18.20;99.90
54260;DHT22;40172;53.022;7.012;2023-09-07T00:05:39;18.20;99.90
54260;DHT22;40172;53.022;7.012;2023-09-07T00:08:05;18.20;99.90
54260;DHT22;40172;53.022;7.012;2023-09-07T00:10:32;18.20;99.90
54260;DHT22;40172;53.022;7.012;2023-09-07T00:13:03;18.20;99.90
54260;DHT22;40172;53.022;7.012;2023-09-07T00:15:30;18.20;99.90
54260;DHT22;40172;53.022;7.012;2023-09-07T00:17:56;18.10;99.90
54260;DHT22;40172;53.022;7.012;2023-09-07T00:20:22;18.10;99.90
54260;DHT22;40172;53.022;7.012;2023-09-07T00:22:49;18.00;99.90
54260;DHT22;40172;53.022;7.012;2023-09-07T00:25:14;17.90;99.90
54260;DHT22;40172;53.022;7.012;2023-09-07T00:27:40;17.90;99.90
54260;DHT22;40172;53.022;7.012;2023-09-07T00:30:06;17.90;99.90
54260;DHT22;40172;53.022;7.012;2023-09-07T00:32:36;17.90;99.90
54260;DHT22;40172;53.022;7.012;2023-09-07T00:35:01;17.90;99.90
54260;DHT22;40172;53.022;7.012;2023-09-07T00:37:27;17.80;99.90
54260;DHT22;40172;53.022;7.012;2023-09-07T00:39:53;18.00;99.90
54260;DHT22;40172;53.022;7.012;2023-09-07T00:42:18;17.80;99.90
54260;DHT22;40172;53.022;7.012;2023-09-07T00:44:44;17.70;99.90
54260;DHT22;40172;53.022;7.012;2023-09-07T00:47:09;17.70;99.90
54260;DHT22;40172;53.022;7.012;2023-09-07T00:49:35;17.60;99.90
54260;DHT22;40172;53.022;7.012;2023-09-07T00:52:01;17.60;99.90
54260;DHT22;40172;53.022;7.012;2023-09-07T00:54:27;17.60;99.90
54260;DHT22;40172;53.022;7.012;2023-09-07T00:56:54;17.60;99.90
54260;DHT22;40172;53.022;7.012;2023-09-07T00:59:20;17.60;99.90
54260;DHT22;40172;53.022;7.012;2023-09-07T01:01:45;17.60;99.90
54260;DHT22;40172;53.022;7.012;2023-09-07T01:04:11;17.50;99.90
54260;DHT22;40172;53.022;7.012;2023-09-07T01:06:39;17.50;99.90
54260;DHT22;40172;53.022;7.012;2023-09-07T01:09:11;17.50;99.90
54260;DHT22;40172;53.022;7.012;2023-09-07T01:11:39;17.50;99.90
54260;DHT22;40172;53.022;7.012;2023-09-07T01:14:05;17.50;99.90
54260;DHT22;40172;53.022;7.012;2023-09-07T01:16:31;17.40;99.90
54260;DHT22;40172;53.022;7.012;2023-09-07T01:19:00;17.40;99.90
54260;DHT22;40172;53.022;7.012;2023-09-07T01:21:26;17.40;99.90
54260;DHT22;40172;53.022;7.012;2023-09-07T01:23:52;17.40;99.90
54260;DHT22;40172;53.022;7.012;2023-09-07T01:26:18;17.40;99.90
54260;DHT22;40172;53.022;7.012;2023-09-07T01:28:43;17.30;99.90
54260;DHT22;40172;53.022;7.012;2023-09-07T01:31:09;17.30;99.90
54260;DHT22;40172;53.022;7.012;2023-09-07T01:33:35;17.30;99.90
54260;DHT22;40172;53.022;7.012;2023-09-07T01:36:00;17.30;99.90
54260;DHT22;40172;53.022;7.012;2023-09-07T01:38:26;17.20;99.90
54260;DHT22;40172;53.022;7.012;2023-09-07T01:40:51;17.20;99.90
54260;DHT22;40172;53.022;7.012;2023-09-07T01:43:17;17.20;99.90
54260;DHT22;40172;53.022;7.012;2023-09-07T01:45:42;17.20;99.90
54260;DHT22;40172;53.022;7.012;2023-09-07T01:48:11;17.20;99.90
54260;DHT22;40172;53.022;7.012;2023-09-07T01:50:37;17.20;99.90
54260;DHT22;40172;53.022;7.012;2023-09-07T01:53:02;17.20;99.90
54260;DHT22;40172;53.022;7.012;2023-09-07T01:55:32;17.10;99.90
54260;DHT22;40172;53.022;7.012;2023-09-07T01:57:57;17.10;99.90
54260;DHT22;40172;53.022;7.012;2023-09-07T02:00:23;17.10;99.90
54260;DHT22;40172;53.022;7.012;2023-09-07T02:02:49;17.00;99.90
54260;DHT22;40172;53.022;7.012;2023-09-07T02:05:14;17.00;99.90
54260;DHT22;40172;53.022;7.012;2023-09-07T02:07:40;17.00;99.90
54260;DHT22;40172;53.022;7.012;2023-09-07T02:10:06;17.70;99.90
54260;DHT22;40172;53.022;7.012;2023-09-07T02:12:32;17.00;99.90
54260;DHT22;40172;53.022;7.012;2023-09-07T02:15:03;17.00;99.90
54260;DHT22;40172;53.022;7.012;2023-09-07T02:17:29;17.00;99.90
54260;DHT22;40172;53.022;7.012;2023-09-07T02:19:55;17.00;99.90
54260;DHT22;40172;53.022;7.012;2023-09-07T02:22:21;17.00;99.90
54260;DHT22;40172;53.022;7.012;2023-09-07T02:24:46;17.00;99.90
54260;DHT22;40172;53.022;7.012;2023-09-07T02:27:12;16.90;99.90
54260;DHT22;40172;53.022;7.012;2023-09-07T02:29:37;16.80;99.90
54260;DHT22;40172;53.022;7.012;2023-09-07T02:32:03;16.80;99.90
54260;DHT22;40172;53.022;7.012;2023-09-07T02:34:30;16.80;99.90
54260;DHT22;40172;53.022;7.012;2023-09-07T02:36:55;16.80;99.90
54260;DHT22;40172;53.022;7.012;2023-09-07T02:39:22;16.80;99.90
54260;DHT22;40172;53.022;7.012;2023-09-07T02:41:52;16.70;99.90
54260;DHT22;40172;53.022;7.012;2023-09-07T02:44:17;16.70;99.90
54260;DHT22;40172;53.022;7.012;2023-09-07T02:46:43;16.70;99.90
54260;DHT22;40172;53.022;7.012;2023-09-07T02:49:08;16.70;99.90
54260;DHT22;40172;53.022;7.012;2023-09-07T02:51:35;16.60;99.90
54260;DHT22;40172;53.022;7.012;2023-09-07T02:54:01;16.60;99.90
54260;DHT22;40172;53.022;7.012;2023-09-07T02:56:27;16.60;99.90
54260;DHT22;40172;53.022;7.012;2023-09-07T02:58:52;16.80;99.90
54260;DHT22;40172;53.022;7.012;2023-09-07T03:01:18;16.50;99.90
54260;DHT22;40172;53.022;7.012;2023-09-07T03:03:46;16.50;99.90
54260;DHT22;40172;53.022;7.012;2023-09-07T03:06:13;16.40;99.90
54260;DHT22;40172;53.022;7.012;2023-09-07T03:08:42;16.50;99.90
54260;DHT22;40172;53.022;7.012;2023-09-07T03:11:08;16.40;99.90
54260;DHT22;40172;53.022;7.012;2023-09-07T03:13:34;16.40;99.90
54260;DHT22;40172;53.022;7.012;2023-09-07T03:16:01;16.40;99.90
54260;DHT22;40172;53.022;7.012;2023-09-07T03:18:28;16.40;99.90
54260;DHT22;40172;53.022;7.012;2023-09-07T03:20:55;16.40;99.90
54260;DHT22;40172;53.022;7.012;2023-09-07T03:23:21;16.40;99.90
54260;DHT22;40172;53.022;7.012;2023-09-07T03:25:48;16.40;99.90
54260;DHT22;40172;53.022;7.012;2023-09-07T03:28:13;16.40;99.90
54260;DHT22;40172;53.022;7.012;2023-09-07T03:30:39;16.40;99.90
54260;DHT22;40172;53.022;7.012;2023-09-07T03:33:05;16.30;99.90
54260;DHT22;40172;53.022;7.012;2023-09-07T03:35:31;16.30;99.90
54260;DHT22;40172;53.022;7.012;2023-09-07T03:37:57;16.20;99.90
54260;DHT22;40172;53.022;7.012;2023-09-07T03:40:22;16.20;99.90
54260;DHT22;40172;53.022;7.012;2023-09-07T03:42:48;17.20;99.90
54260;DHT22;40172;53.022;7.012;2023-09-07T03:45:14;16.10;99.90
54260;DHT22;40172;53.022;7.012;2023-09-07T03:47:40;16.10;99.90
54260;DHT22;40172;53.022;7.012;2023-09-07T03:50:06;16.00;99.90
54260;DHT22;40172;53.022;7.012;2023-09-07T03:52:31;16.00;99.90
54260;DHT22;40172;53.022;7.012;2023-09-07T03:54:57;15.90;99.90
54260;DHT22;40172;53.022;7.012;2023-09-07T03:57:26;15.90;99.90
54260;DHT22;40172;53.022;7.012;2023-09-07T03:59:53;15.90;99.90
54260;DHT22;40172;53.022;7.012;2023-09-07T04:02:20;15.80;99.90
54260;DHT22;40172;53.022;7.012;2023-09-07T04:04:50;16.00;99.90
54260;DHT22;40172;53.022;7.012;2023-09-07T04:07:16;15.80;99.90
54260;DHT22;40172;53.022;7.012;2023-09-07T04:09:42;15.80;99.90
54260;DHT22;40172;53.022;7.012;2023-09-07T04:12:08;15.80;99.90
54260;DHT22;40172;53.022;7.012;2023-09-07T04:14:34;15.70;99.90
54260;DHT22;40172;53.022;7.012;2023-09-07T04:17:00;15.70;99.90
54260;DHT22;40172;53.022;7.012;2023-09-07T04:19:26;15.60;99.90
54260;DHT22;40172;53.022;7.012;2023-09-07T04:21:52;15.60;99.90
54260;DHT22;40172;53.022;7.012;2023-09-07T04:24:17;15.60;99.90
54260;DHT22;40172;53.022;7.012;2023-09-07T04:26:43;15.60;99.90
54260;DHT22;40172;53.022;7.012;2023-09-07T04:29:08;15.60;99.90
54260;DHT22;40172;53.022;7.012;2023-09-07T04:31:34;15.60;99.90
54260;DHT22;40172;53.022;7.012;2023-09-07T04:34:00;15.70;99.90
54260;DHT22;40172;53.022;7.012;2023-09-07T04:36:26;15.70;99.90
54260;DHT22;40172;53.022;7.012;2023-09-07T04:38:51;15.70;99.90
54260;DHT22;40172;53.022;7.012;2023-09-07T04:41:17;15.70;99.90
54260;DHT22;40172;53.022;7.012;2023-09-07T04:43:43;15.70;99.90
54260;DHT22;40172;53.022;7.012;2023-09-07T04:46:09;15.70;99.90
54260;DHT22;40172;53.022;7.012;2023-09-07T04:48:35;15.80;99.90
54260;DHT22;40172;53.022;7.012;2023-09-07T04:51:02;15.80;99.90
54260;DHT22;40172;53.022;7.012;2023-09-07T04:53:33;15.80;99.90
54260;DHT22;40172;53.022;7.012;2023-09-07T04:56:01;15.80;99.90
54260;DHT22;40172;53.022;7.012;2023-09-07T04:58:27;15.80;99.90
54260;DHT22;40172;53.022;7.012;2023-09-07T05:00:53;15.80;99.90
54260;DHT22;40172;53.022;7.012;2023-09-07T05:03:19;15.80;99.90
54260;DHT22;40172;53.022;7.012;2023-09-07T05:05:45;15.80;99.90
54260;DHT22;40172;53.022;7.012;2023-09-07T05:08:15;15.80;99.90
54260;DHT22;40172;53.022;7.012;2023-09-07T05:10:41;15.80;99.90
54260;DHT22;40172;53.022;7.012;2023-09-07T05:13:07;15.90;99.90
54260;DHT22;40172;53.022;7.012;2023-09-07T05:15:33;15.90;99.90
54260;DHT22;40172;53.022;7.012;2023-09-07T05:17:58;15.90;99.90
54260;DHT22;40172;53.022;7.012;2023-09-07T05:20:25;16.50;99.90
54260;DHT22;40172;53.022;7.012;2023-09-07T05:22:52;15.90;99.90
54260;DHT22;40172;53.022;7.012;2023-09-07T05:25:18;15.90;99.90
54260;DHT22;40172;53.022;7.012;2023-09-07T05:27:45;15.90;99.90
54260;DHT22;40172;53.022;7.012;2023-09-07T05:30:11;15.90;99.90
54260;DHT22;40172;53.022;7.012;2023-09-07T05:32:37;15.90;99.90
54260;DHT22;40172;53.022;7.012;2023-09-07T05:35:02;16.00;99.90
54260;DHT22;40172;53.022;7.012;2023-09-07T05:37:28;16.00;99.90
54260;DHT22;40172;53.022;7.012;2023-09-07T05:39:53;16.00;99.90
54260;DHT22;40172;53.022;7.012;2023-09-07T05:42:19;16.00;99.90
54260;DHT22;40172;53.022;7.012;2023-09-07T05:44:45;16.10;99.90
54260;DHT22;40172;53.022;7.012;2023-09-07T05:47:10;16.10;99.90
54260;DHT22;40172;53.022;7.012;2023-09-07T05:49:36;16.10;99.90
54260;DHT22;40172;53.022;7.012;2023-09-07T05:52:02;16.10;99.90
54260;DHT22;40172;53.022;7.012;2023-09-07T05:54:27;16.10;99.90
54260;DHT22;40172;53.022;7.012;2023-09-07T05:56:53;16.10;99.90
54260;DHT22;40172;53.022;7.012;2023-09-07T05:59:18;16.20;99.90
54260;DHT22;40172;53.022;7.012;2023-09-07T06:01:45;16.20;99.90
54260;DHT22;40172;53.022;7.012;2023-09-07T06:04:10;16.30;99.90
54260;DHT22;40172;53.022;7.012;2023-09-07T06:06:36;16.30;99.90
54260;DHT22;40172;53.022;7.012;2023-09-07T06:09:02;16.40;99.90
54260;DHT22;40172;53.022;7.012;2023-09-07T06:11:29;16.40;99.90
54260;DHT22;40172;53.022;7.012;2023-09-07T06:13:55;16.50;99.90
54260;DHT22;40172;53.022;7.012;2023-09-07T06:16:21;16.50;99.90
54260;DHT22;40172;53.022;7.012;2023-09-07T06:18:46;16.60;99.90
54260;DHT22;40172;53.022;7.012;2023-09-07T06:21:12;16.70;99.90
54260;DHT22;40172;53.022;7.012;2023-09-07T06:23:37;16.80;99.90
54260;DHT22;40172;53.022;7.012;2023-09-07T06:26:03;16.90;99.90
54260;DHT22;40172;53.022;7.012;2023-09-07T06:28:28;17.00;99.90
54260;DHT22;40172;53.022;7.012;2023-09-07T06:30:54;17.10;99.90
54260;DHT22;40172;53.022;7.012;2023-09-07T06:33:20;17.20;99.90
54260;DHT22;40172;53.022;7.012;2023-09-07T06:35:45;17.30;99.90
54260;DHT22;40172;53.022;7.012;2023-09-07T06:38:11;17.70;99.90
54260;DHT22;40172;53.022;7.012;2023-09-07T06:40:36;17.50;99.90
54260;DHT22;40172;53.022;7.012;2023-09-07T06:43:02;17.60;99.90
54260;DHT22;40172;53.022;7.012;2023-09-07T06:45:36;17.70;99.90
54260;DHT22;40172;53.022;7.012;2023-09-07T06:48:03;17.80;99.90
54260;DHT22;40172;53.022;7.012;2023-09-07T06:50:28;17.90;99.90
54260;DHT22;40172;53.022;7.012;2023-09-07T06:52:54;18.00;99.90
54260;DHT22;40172;53.022;7.012;2023-09-07T06:55:19;18.20;99.90
54260;DHT22;40172;53.022;7.012;2023-09-07T06:57:45;18.30;99.90
54260;DHT22;40172;53.022;7.012;2023-09-07T07:00:11;18.40;99.90
54260;DHT22;40172;53.022;7.012;2023-09-07T07:02:37;18.50;99.90
54260;DHT22;40172;53.022;7.012;2023-09-07T07:05:04;18.60;99.90
54260;DHT22;40172;53.022;7.012;2023-09-07T07:07:30;18.80;99.90
54260;DHT22;40172;53.022;7.012;2023-09-07T07:09:56;18.90;99.90
54260;DHT22;40172;53.022;7.012;2023-09-07T07:12:22;19.00;99.90
54260;DHT22;40172;53.022;7.012;2023-09-07T07:14:47;19.10;99.90
54260;DHT22;40172;53.022;7.012;2023-09-07T07:17:13;19.30;99.90
54260;DHT22;40172;53.022;7.012;2023-09-07T07:19:38;19.40;99.90
54260;DHT22;40172;53.022;7.012;2023-09-07T07:22:04;19.50;99.90
54260;DHT22;40172;53.022;7.012;2023-09-07T07:24:30;19.60;99.90
54260;DHT22;40172;53.022;7.012;2023-09-07T07:26:55;19.70;99.90
54260;DHT22;40172;53.022;7.012;2023-09-07T07:29:21;19.80;99.90
54260;DHT22;40172;53.022;7.012;2023-09-07T07:31:46;19.90;99.90
54260;DHT22;40172;53.022;7.012;2023-09-07T07:34:12;19.90;99.90
54260;DHT22;40172;53.022;7.012;2023-09-07T07:36:38;20.20;99.90
54260;DHT22;40172;53.022;7.012;2023-09-07T07:39:05;20.20;99.90
54260;DHT22;40172;53.022;7.012;2023-09-07T07:41:32;20.40;99.90
54260;DHT22;40172;53.022;7.012;2023-09-07T07:43:58;20.50;99.90
54260;DHT22;40172;53.022;7.012;2023-09-07T07:46:23;20.60;99.90
54260;DHT22;40172;53.022;7.012;2023-09-07T07:48:49;20.70;99.90
54260;DHT22;40172;53.022;7.012;2023-09-07T07:51:15;20.80;99.90
54260;DHT22;40172;53.022;7.012;2023-09-07T07:53:40;20.90;99.90
54260;DHT22;40172;53.022;7.012;2023-09-07T07:56:13;21.00;99.90
54260;DHT22;40172;53.022;7.012;2023-09-07T07:58:43;21.10;99.90
54260;DHT22;40172;53.022;7.012;2023-09-07T08:01:15;21.20;99.90
54260;DHT22;40172;53.022;7.012;2023-09-07T08:03:40;21.30;99.90
54260;DHT22;40172;53.022;7.012;2023-09-07T08:06:06;21.40;99.90
54260;DHT22;40172;53.022;7.012;2023-09-07T08:08:32;21.50;99.90
54260;DHT22;40172;53.022;7.012;2023-09-07T08:10:57;21.60;99.90
54260;DHT22;40172;53.022;7.012;2023-09-07T08:13:25;21.70;99.90
54260;DHT22;40172;53.022;7.012;2023-09-07T08:15:51;21.80;99.90
54260;DHT22;40172;53.022;7.012;2023-09-07T08:18:16;21.90;99.90
54260;DHT22;40172;53.022;7.012;2023-09-07T08:20:42;22.00;99.90
54260;DHT22;40172;53.022;7.012;2023-09-07T08:23:07;22.10;99.90
54260;DHT22;40172;53.022;7.012;2023-09-07T08:25:35;22.20;99.90
54260;DHT22;40172;53.022;7.012;2023-09-07T08:28:00;22.40;99.90
54260;DHT22;40172;53.022;7.012;2023-09-07T08:30:30;22.50;99.90
54260;DHT22;40172;53.022;7.012;2023-09-07T08:32:56;22.60;99.90
54260;DHT22;40172;53.022;7.012;2023-09-07T08:35:22;22.60;99.90
54260;DHT22;40172;53.022;7.012;2023-09-07T08:37:53;22.70;99.90
54260;DHT22;40172;53.022;7.012;2023-09-07T08:40:19;22.80;99.90
54260;DHT22;40172;53.022;7.012;2023-09-07T08:42:46;22.90;99.90
54260;DHT22;40172;53.022;7.012;2023-09-07T08:45:14;23.00;99.90
54260;DHT22;40172;53.022;7.012;2023-09-07T08:47:45;23.10;99.90
54260;DHT22;40172;53.022;7.012;2023-09-07T08:50:12;23.20;99.90
54260;DHT22;40172;53.022;7.012;2023-09-07T08:52:37;23.30;99.90
54260;DHT22;40172;53.022;7.012;2023-09-07T08:55:03;23.40;99.90
54260;DHT22;40172;53.022;7.012;2023-09-07T08:57:30;23.50;99.90
54260;DHT22;40172;53.022;7.012;2023-09-07T08:59:57;23.60;99.90
54260;DHT22;40172;53.022;7.012;2023-09-07T09:02:22;23.70;99.90
54260;DHT22;40172;53.022;7.012;2023-09-07T09:04:48;24.10;99.90
54260;DHT22;40172;53.022;7.012;2023-09-07T09:07:14;24.40;99.90
54260;DHT22;40172;53.022;7.012;2023-09-07T09:09:39;24.00;99.90
54260;DHT22;40172;53.022;7.012;2023-09-07T09:12:10;24.10;99.90
54260;DHT22;40172;53.022;7.012;2023-09-07T09:14:36;24.20;99.90
54260;DHT22;40172;53.022;7.012;2023-09-07T09:17:02;24.30;99.90
54260;DHT22;40172;53.022;7.012;2023-09-07T09:19:35;24.40;99.90
54260;DHT22;40172;53.022;7.012;2023-09-07T09:22:01;24.50;99.90
54260;DHT22;40172;53.022;7.012;2023-09-07T09:24:32;24.50;99.90
54260;DHT22;40172;53.022;7.012;2023-09-07T09:26:58;24.60;99.90
54260;DHT22;40172;53.022;7.012;2023-09-07T09:29:24;24.70;99.90
54260;DHT22;40172;53.022;7.012;2023-09-07T09:31:51;24.90;99.90
54260;DHT22;40172;53.022;7.012;2023-09-07T09:34:18;25.00;99.90
54260;DHT22;40172;53.022;7.012;2023-09-07T09:36:44;25.10;99.90
54260;DHT22;40172;53.022;7.012;2023-09-07T09:39:10;25.20;99.90
54260;DHT22;40172;53.022;7.012;2023-09-07T09:41:37;25.20;99.90
54260;DHT22;40172;53.022;7.012;2023-09-07T09:44:05;25.30;99.90
54260;DHT22;40172;53.022;7.012;2023-09-07T09:46:32;25.40;99.90
54260;DHT22;40172;53.022;7.012;2023-09-07T09:48:57;25.60;99.90
54260;DHT22;40172;53.022;7.012;2023-09-07T09:51:23;25.60;99.90
54260;DHT22;40172;53.022;7.012;2023-09-07T09:53:50;25.70;99.90
54260;DHT22;40172;53.022;7.012;2023-09-07T09:56:16;25.90;99.90
54260;DHT22;40172;53.022;7.012;2023-09-07T09:58:42;25.90;99.90
54260;DHT22;40172;53.022;7.012;2023-09-07T10:01:09;26.00;99.90
54260;DHT22;40172;53.022;7.012;2023-09-07T10:03:46;26.10;99.90
54260;DHT22;40172;53.022;7.012;2023-09-07T10:06:18;26.20;99.90
54260;DHT22;40172;53.022;7.012;2023-09-07T10:09:01;26.50;99.90
54260;DHT22;40172;53.022;7.012;2023-09-07T10:11:37;26.40;99.90
54260;DHT22;40172;53.022;7.012;2023-09-07T10:14:04;26.40;99.90
54260;DHT22;40172;53.022;7.012;2023-09-07T10:16:47;26.50;99.90
54260;DHT22;40172;53.022;7.012;2023-09-07T10:19:20;26.60;99.90
54260;DHT22;40172;53.022;7.012;2023-09-07T10:21:46;26.60;99.90
54260;DHT22;40172;53.022;7.012;2023-09-07T10:24:23;26.90;99.40
54260;DHT22;40172;53.022;7.012;2023-09-07T10:27:06;26.60;98.90
54260;DHT22;40172;53.022;7.012;2023-09-07T10:29:44;26.70;98.00
54260;DHT22;40172;53.022;7.012;2023-09-07T10:32:10;26.70;97.90
54260;DHT22;40172;53.022;7.012;2023-09-07T10:34:39;26.70;99.00
54260;DHT22;40172;53.022;7.012;2023-09-07T10:37:05;26.80;98.00
54260;DHT22;40172;53.022;7.012;2023-09-07T10:39:32;26.80;96.60
54260;DHT22;40172;53.022;7.012;2023-09-07T10:41:58;26.90;96.60
54260;DHT22;40172;53.022;7.012;2023-09-07T10:44:27;27.00;96.60
54260;DHT22;40172;53.022;7.012;2023-09-07T10:46:54;27.00;95.80
54260;DHT22;40172;53.022;7.012;2023-09-07T10:49:20;26.90;94.50
54260;DHT22;40172;53.022;7.012;2023-09-07T10:51:46;27.00;94.70
54260;DHT22;40172;53.022;7.012;2023-09-07T10:54:23;27.00;94.80
54260;DHT22;40172;53.022;7.012;2023-09-07T10:56:50;27.10;93.70
54260;DHT22;40172;53.022;7.012;2023-09-07T10:59:16;27.60;94.50
54260;DHT22;40172;53.022;7.012;2023-09-07T11:01:45;27.20;93.40
54260;DHT22;40172;53.022;7.012;2023-09-07T11:04:11;27.60;92.90
54260;DHT22;40172;53.022;7.012;2023-09-07T11:06:39;27.70;93.30
54260;DHT22;40172;53.022;7.012;2023-09-07T11:09:05;27.30;94.00
54260;DHT22;40172;53.022;7.012;2023-09-07T11:11:36;27.30;92.40
54260;DHT22;40172;53.022;7.012;2023-09-07T11:14:05;27.70;92.30
54260;DHT22;40172;53.022;7.012;2023-09-07T11:16:33;27.30;93.10
54260;DHT22;40172;53.022;7.012;2023-09-07T11:19:03;27.30;93.00
54260;DHT22;40172;53.022;7.012;2023-09-07T11:21:30;27.50;93.00
54260;DHT22;40172;53.022;7.012;2023-09-07T11:23:57;27.30;92.00
54260;DHT22;40172;53.022;7.012;2023-09-07T11:26:22;27.40;91.40
54260;DHT22;40172;53.022;7.012;2023-09-07T11:28:48;27.40;91.40
54260;DHT22;40172;53.022;7.012;2023-09-07T11:31:18;27.30;92.10
54260;DHT22;40172;53.022;7.012;2023-09-07T11:33:44;27.40;90.70
54260;DHT22;40172;53.022;7.012;2023-09-07T11:36:09;27.30;90.90
54260;DHT22;40172;53.022;7.012;2023-09-07T11:38:36;27.40;91.40
54260;DHT22;40172;53.022;7.012;2023-09-07T11:41:03;27.30;91.50
54260;DHT22;40172;53.022;7.012;2023-09-07T11:43:29;27.30;91.80
54260;DHT22;40172;53.022;7.012;2023-09-07T11:45:54;27.30;91.70
54260;DHT22;40172;53.022;7.012;2023-09-07T11:48:20;27.30;91.50
54260;DHT22;40172;53.022;7.012;2023-09-07T11:50:45;27.30;91.50
54260;DHT22;40172;53.022;7.012;2023-09-07T11:53:11;27.60;91.50
54260;DHT22;40172;53.022;7.012;2023-09-07T11:55:36;27.30;91.80
54260;DHT22;40172;53.022;7.012;2023-09-07T11:58:04;27.40;91.80
54260;DHT22;40172;53.022;7.012;2023-09-07T12:00:32;27.40;92.20
54260;DHT22;40172;53.022;7.012;2023-09-07T12:02:58;27.40;91.50
54260;DHT22;40172;53.022;7.012;2023-09-07T12:05:24;27.40;91.00
54260;DHT22;40172;53.022;7.012;2023-09-07T12:07:50;27.40;91.80
54260;DHT22;40172;53.022;7.012;2023-09-07T12:10:15;27.50;92.00
54260;DHT22;40172;53.022;7.012;2023-09-07T12:12:42;28.10;90.70
54260;DHT22;40172;53.022;7.012;2023-09-07T12:15:10;27.50;90.90
54260;DHT22;40172;53.022;7.012;2023-09-07T12:17:37;27.60;90.70
54260;DHT22;40172;53.022;7.012;2023-09-07T12:20:03;27.60;90.90
54260;DHT22;40172;53.022;7.012;2023-09-07T12:22:31;27.60;91.00
54260;DHT22;40172;53.022;7.012;2023-09-07T12:24:59;27.60;91.30
54260;DHT22;40172;53.022;7.012;2023-09-07T12:27:25;28.40;91.20
54260;DHT22;40172;53.022;7.012;2023-09-07T12:29:50;27.60;90.20
54260;DHT22;40172;53.022;7.012;2023-09-07T12:32:16;27.70;90.30
54260;DHT22;40172;53.022;7.012;2023-09-07T12:34:41;27.70;90.00
54260;DHT22;40172;53.022;7.012;2023-09-07T12:37:07;27.70;89.70
54260;DHT22;40172;53.022;7.012;2023-09-07T12:39:33;27.60;88.60
54260;DHT22;40172;53.022;7.012;2023-09-07T12:41:58;27.70;89.00
54260;DHT22;40172;53.022;7.012;2023-09-07T12:44:24;27.80;88.60
54260;DHT22;40172;53.022;7.012;2023-09-07T12:46:49;27.80;89.50
54260;DHT22;40172;53.022;7.012;2023-09-07T12:49:15;28.30;89.50
54260;DHT22;40172;53.022;7.012;2023-09-07T12:51:45;27.90;88.40
54260;DHT22;40172;53.022;7.012;2023-09-07T12:54:12;27.90;87.00
54260;DHT22;40172;53.022;7.012;2023-09-07T12:56:37;28.20;88.30
54260;DHT22;40172;53.022;7.012;2023-09-07T12:59:03;27.90;87.10
54260;DHT22;40172;53.022;7.012;2023-09-07T13:01:29;27.90;87.00
54260;DHT22;40172;53.022;7.012;2023-09-07T13:03:56;27.90;89.40
54260;DHT22;40172;53.022;7.012;2023-09-07T13:06:22;27.90;89.10
54260;DHT22;40172;53.022;7.012;2023-09-07T13:08:47;27.90;87.60
54260;DHT22;40172;53.022;7.012;2023-09-07T13:11:13;28.20;87.50
54260;DHT22;40172;53.022;7.012;2023-09-07T13:13:38;27.90;86.50
54260;DHT22;40172;53.022;7.012;2023-09-07T13:16:05;27.90;86.90
54260;DHT22;40172;53.022;7.012;2023-09-07T13:18:30;27.90;86.70
54260;DHT22;40172;53.022;7.012;2023-09-07T13:20:57;27.90;87.50
54260;DHT22;40172;53.022;7.012;2023-09-07T13:23:28;27.90;87.00
54260;DHT22;40172;53.022;7.012;2023-09-07T13:25:55;27.90;85.30
54260;DHT22;40172;53.022;7.012;2023-09-07T13:28:21;27.90;85.30
54260;DHT22;40172;53.022;7.012;2023-09-07T13:30:47;27.90;86.10
54260;DHT22;40172;53.022;7.012;2023-09-07T13:33:13;28.00;86.00
54260;DHT22;40172;53.022;7.012;2023-09-07T13:35:38;28.10;84.70
54260;DHT22;40172;53.022;7.012;2023-09-07T13:38:05;27.90;83.90
54260;DHT22;40172;53.022;7.012;2023-09-07T13:40:31;28.20;84.00
54260;DHT22;40172;53.022;7.012;2023-09-07T13:42:56;28.10;83.00
54260;DHT22;40172;53.022;7.012;2023-09-07T13:45:22;28.10;83.90
54260;DHT22;40172;53.022;7.012;2023-09-07T13:47:48;28.10;84.00
54260;DHT22;40172;53.022;7.012;2023-09-07T13:50:14;28.10;83.50
54260;DHT22;40172;53.022;7.012;2023-09-07T13:52:39;28.10;84.00
54260;DHT22;40172;53.022;7.012;2023-09-07T13:55:05;28.40;82.00
54260;DHT22;40172;53.022;7.012;2023-09-07T13:57:32;28.20;81.80
54260;DHT22;40172;53.022;7.012;2023-09-07T13:59:58;28.20;81.50
54260;DHT22;40172;53.022;7.012;2023-09-07T14:02:23;28.30;81.60
54260;DHT22;40172;53.022;7.012;2023-09-07T14:04:49;28.30;82.70
54260;DHT22;40172;53.022;7.012;2023-09-07T14:07:15;28.30;83.50
54260;DHT22;40172;53.022;7.012;2023-09-07T14:09:41;28.30;83.20
54260;DHT22;40172;53.022;7.012;2023-09-07T14:12:07;28.30;82.40
54260;DHT22;40172;53.022;7.012;2023-09-07T14:14:32;28.40;82.10
54260;DHT22;40172;53.022;7.012;2023-09-07T14:16:58;28.30;81.30
54260;DHT22;40172;53.022;7.012;2023-09-07T14:19:26;28.30;80.80
54260;DHT22;40172;53.022;7.012;2023-09-07T14:21:56;28.30;80.30
54260;DHT22;40172;53.022;7.012;2023-09-07T14:24:22;28.30;81.00
54260;DHT22;40172;53.022;7.012;2023-09-07T14:26:47;28.30;81.20
54260;DHT22;40172;53.022;7.012;2023-09-07T14:29:13;28.40;81.60
54260;DHT22;40172;53.022;7.012;2023-09-07T14:31:38;28.50;82.00
54260;DHT22;40172;53.022;7.012;2023-09-07T14:34:04;28.50;81.90
54260;DHT22;40172;53.022;7.012;2023-09-07T14:36:30;28.50;82.00
54260;DHT22;40172;53.022;7.012;2023-09-07T14:38:55;28.50;82.70
54260;DHT22;40172;53.022;7.012;2023-09-07T14:41:21;28.60;82.20
54260;DHT22;40172;53.022;7.012;2023-09-07T14:43:48;28.60;82.20
54260;DHT22;40172;53.022;7.012;2023-09-07T14:46:14;28.60;82.70
54260;DHT22;40172;53.022;7.012;2023-09-07T14:48:41;28.60;81.50
54260;DHT22;40172;53.022;7.012;2023-09-07T14:51:06;28.60;82.20
54260;DHT22;40172;53.022;7.012;2023-09-07T14:53:33;28.60;82.70
54260;DHT22;40172;53.022;7.012;2023-09-07T14:55:59;28.60;83.40
54260;DHT22;40172;53.022;7.012;2023-09-07T14:58:25;28.60;82.50
54260;DHT22;40172;53.022;7.012;2023-09-07T15:00:50;28.70;83.50
54260;DHT22;40172;53.022;7.012;2023-09-07T15:03:16;28.70;83.20
54260;DHT22;40172;53.022;7.012;2023-09-07T15:05:41;28.70;82.90
54260;DHT22;40172;53.022;7.012;2023-09-07T15:08:07;28.70;83.20
54260;DHT22;40172;53.022;7.012;2023-09-07T15:10:33;28.70;83.20
54260;DHT22;40172;53.022;7.012;2023-09-07T15:13:01;28.80;82.80
54260;DHT22;40172;53.022;7.012;2023-09-07T15:15:31;28.80;82.50
54260;DHT22;40172;53.022;7.012;2023-09-07T15:18:00;29.10;83.00
54260;DHT22;40172;53.022;7.012;2023-09-07T15:20:26;28.80;82.10
54260;DHT22;40172;53.022;7.012;2023-09-07T15:22:51;28.80;83.10
54260;DHT22;40172;53.022;7.012;2023-09-07T15:25:17;28.80;83.10